createdAt,value
2023-02-02T00:01:27.899Z,96679.81
2023-02-02T00:03:58.317Z,96669.91
2023-02-02T00:06:29.372Z,96676.63
2023-02-02T00:09:01.785Z,96679.53
2023-02-02T00:11:30.865Z,96676.63
2023-02-02T00:13:58.668Z,96676.34
2023-02-02T00:16:44.088Z,96670.69
2023-02-02T00:19:14.315Z,96664.31
2023-02-02T00:21:42.891Z,96658.66
2023-02-02T00:24:14.861Z,96667.00
2023-02-02T00:26:44.048Z,96670.72
2023-02-02T00:29:16.280Z,96674.47
2023-02-02T00:31:44.164Z,96666.72
2023-02-02T00:34:14.291Z,96673.94
2023-02-02T00:36:42.636Z,96667.00
2023-02-02T00:39:15.180Z,96671.00
2023-02-02T00:41:44.252Z,96672.34
2023-02-02T00:44:29.546Z,96673.16
2023-02-02T00:47:01.009Z,96664.56
2023-02-02T00:49:28.760Z,96676.63
2023-02-02T00:51:56.561Z,96672.34
2023-02-02T00:54:27.572Z,96680.88
2023-02-02T00:56:55.440Z,96673.94
2023-02-02T00:59:25.419Z,96671.25
2023-02-02T01:01:53.485Z,96670.47
2023-02-02T01:04:22.472Z,96672.84
2023-02-02T01:06:52.693Z,96680.38
2023-02-02T01:09:20.613Z,96675.53
2023-02-02T01:11:50.478Z,96666.72
2023-02-02T01:14:18.290Z,96673.66
2023-02-02T01:16:46.066Z,96660.56
2023-02-02T01:19:14.204Z,96668.88
2023-02-02T01:21:43.191Z,96670.72
2023-02-02T01:24:11.150Z,96671.78
2023-02-02T01:26:39.218Z,96672.59
2023-02-02T01:29:08.426Z,96683.06
2023-02-02T01:31:36.349Z,96680.38
2023-02-02T01:34:04.227Z,96679.31
2023-02-02T01:36:32.076Z,96674.75
2023-02-02T01:39:00.917Z,96670.19
2023-02-02T01:41:29.492Z,96663.47
2023-02-02T01:44:00.349Z,96667.25
2023-02-02T01:46:32.792Z,96661.88
2023-02-02T01:49:12.258Z,96667.22
2023-02-02T01:51:45.276Z,96658.69
2023-02-02T01:54:17.638Z,96660.00
2023-02-02T01:56:55.393Z,96663.75
2023-02-02T01:59:26.088Z,96677.94
2023-02-02T02:01:56.586Z,96671.78
2023-02-02T02:04:28.570Z,96670.47
2023-02-02T02:06:57.359Z,96669.09
2023-02-02T02:09:25.628Z,96658.13
2023-02-02T02:11:54.823Z,96663.22
2023-02-02T02:14:41.906Z,96664.81
2023-02-02T02:17:26.188Z,96673.13
2023-02-02T02:20:49.275Z,96664.00
2023-02-02T02:24:07.205Z,96667.22
2023-02-02T02:26:57.183Z,96666.69
2023-02-02T02:30:08.152Z,96661.06
2023-02-02T02:32:46.556Z,96654.34
2023-02-02T02:35:24.624Z,96665.88
2023-02-02T02:37:58.432Z,96662.13
2023-02-02T02:40:36.499Z,96665.31
2023-02-02T02:43:13.138Z,96667.47
2023-02-02T02:45:42.341Z,96661.31
2023-02-02T02:48:12.001Z,96666.91
2023-02-02T02:50:40.321Z,96665.34
2023-02-02T02:53:14.845Z,96658.66
2023-02-02T02:55:49.869Z,96664.00
2023-02-02T02:58:22.941Z,96662.63
2023-02-02T03:01:00.456Z,96659.19
2023-02-02T03:03:48.244Z,96659.19
2023-02-02T03:06:24.315Z,96668.28
2023-02-02T03:08:59.934Z,96663.72
2023-02-02T03:11:31.507Z,96655.97
2023-02-02T03:14:02.917Z,96654.59
2023-02-02T03:16:30.733Z,96661.25
2023-02-02T03:19:00.207Z,96660.72
2023-02-02T03:21:28.075Z,96651.09
2023-02-02T03:23:55.876Z,96639.63
2023-02-02T03:26:24.561Z,96645.78
2023-02-02T03:28:54.691Z,96640.69
2023-02-02T03:31:26.922Z,96631.59
2023-02-02T03:33:54.786Z,96632.41
2023-02-02T03:36:24.178Z,96640.69
2023-02-02T03:38:51.959Z,96625.69
2023-02-02T03:41:19.920Z,96636.97
2023-02-02T03:43:47.947Z,96635.88
2023-02-02T03:46:15.867Z,96631.34
2023-02-02T03:48:43.788Z,96636.69
2023-02-02T03:51:13.440Z,96631.34
2023-02-02T03:53:47.417Z,96634.81
2023-02-02T03:56:19.335Z,96639.91
2023-02-02T03:58:47.521Z,96632.69
2023-02-02T04:01:15.841Z,96638.31
2023-02-02T04:03:46.180Z,96634.31
2023-02-02T04:06:14.039Z,96627.34
2023-02-02T04:08:43.315Z,96645.81
2023-02-02T04:11:11.798Z,96647.41
2023-02-02T04:13:43.257Z,96654.66
2023-02-02T04:16:14.370Z,96653.06
2023-02-02T04:18:42.250Z,96651.44
2023-02-02T04:21:10.523Z,96650.38
2023-02-02T04:23:38.845Z,96653.31
2023-02-02T04:26:08.102Z,96662.97
2023-02-02T04:28:38.966Z,96660.56
2023-02-02T04:31:08.167Z,96657.31
2023-02-02T04:33:39.103Z,96654.66
2023-02-02T04:36:07.491Z,96666.41
2023-02-02T04:38:35.379Z,96671.50
2023-02-02T04:41:09.579Z,96673.91
2023-02-02T04:43:38.794Z,96675.00
2023-02-02T04:46:08.768Z,96660.00
2023-02-02T04:48:36.726Z,96665.91
2023-02-02T04:51:06.750Z,96677.13
2023-02-02T04:53:34.823Z,96673.91
2023-02-02T04:56:08.555Z,96679.28
2023-02-02T04:58:36.434Z,96678.72
2023-02-02T05:01:10.433Z,96680.06
2023-02-02T05:03:38.713Z,96688.41
2023-02-02T05:06:06.982Z,96686.78
2023-02-02T05:08:34.963Z,96697.25
2023-02-02T05:11:09.504Z,96703.66
2023-02-02T05:13:38.524Z,96703.94
2023-02-02T05:16:07.470Z,96693.22
2023-02-02T05:18:35.307Z,96710.34
2023-02-02T05:21:04.391Z,96699.66
2023-02-02T05:23:32.530Z,96686.84
2023-02-02T05:26:03.046Z,96697.53
2023-02-02T05:28:32.250Z,96704.50
2023-02-02T05:31:00.161Z,96703.13
2023-02-02T05:33:27.935Z,96699.66
2023-02-02T05:35:55.803Z,96708.50
2023-02-02T05:38:23.690Z,96714.91
2023-02-02T05:40:51.557Z,96696.19
2023-02-02T05:43:21.497Z,96698.34
2023-02-02T05:45:50.858Z,96712.78
2023-02-02T05:48:18.736Z,96714.41
2023-02-02T05:50:50.661Z,96721.63
2023-02-02T05:53:18.542Z,96722.16
2023-02-02T05:55:46.538Z,96711.97
2023-02-02T05:58:14.392Z,96716.53
2023-02-02T06:00:42.235Z,96729.13
2023-02-02T06:03:12.968Z,96725.38
2023-02-02T06:05:40.997Z,96732.34
2023-02-02T06:08:08.766Z,96737.97
2023-02-02T06:10:39.360Z,96726.19
2023-02-02T06:13:08.139Z,96739.84
2023-02-02T06:15:36.140Z,96728.06
2023-02-02T06:18:06.114Z,96731.56
2023-02-02T06:20:36.719Z,96741.47
2023-02-02T06:23:07.421Z,96739.84
2023-02-02T06:25:35.814Z,96733.16
2023-02-02T06:28:03.895Z,96738.81
2023-02-02T06:30:33.898Z,96746.28
2023-02-02T06:33:03.425Z,96754.81
2023-02-02T06:35:33.564Z,96741.72
2023-02-02T06:38:02.752Z,96747.06
2023-02-02T06:40:30.866Z,96758.56
2023-02-02T06:42:59.272Z,96748.66
2023-02-02T06:45:27.971Z,96745.19
2023-02-02T06:47:55.842Z,96757.47
2023-02-02T06:50:23.875Z,96754.28
2023-02-02T06:52:53.375Z,96764.19
2023-02-02T06:55:22.882Z,96760.97
2023-02-02T06:57:57.583Z,96774.91
2023-02-02T07:00:26.447Z,96761.78
2023-02-02T07:02:54.710Z,96768.75
2023-02-02T07:05:28.007Z,96771.16
2023-02-02T07:07:57.237Z,96771.66
2023-02-02T07:11:12.435Z,96767.94
2023-02-02T07:13:15.075Z,96769.25
2023-02-02T07:15:43.277Z,96780.78
2023-02-02T07:18:11.092Z,96767.16
2023-02-02T07:20:38.953Z,96770.63
2023-02-02T07:23:08.968Z,96766.31
2023-02-02T07:25:41.254Z,96770.09
2023-02-02T07:28:11.540Z,96773.56
2023-02-02T07:30:42.565Z,96769.81
2023-02-02T07:33:12.797Z,96767.69
2023-02-02T07:35:42.478Z,96782.97
2023-02-02T07:38:10.393Z,96776.56
2023-02-02T07:40:39.740Z,96768.00
2023-02-02T07:43:08.518Z,96776.84
2023-02-02T07:45:38.034Z,96773.88
2023-02-02T07:48:09.119Z,96776.03
2023-02-02T07:50:41.930Z,96783.78
2023-02-02T07:53:09.854Z,96778.44
2023-02-02T07:55:39.378Z,96796.66
2023-02-02T07:58:07.897Z,96795.31
2023-02-02T08:00:35.730Z,96796.69
2023-02-02T08:03:11.250Z,96797.78
2023-02-02T08:05:39.492Z,96804.44
2023-02-02T08:08:07.391Z,96809.53
2023-02-02T08:10:37.322Z,96815.69
2023-02-02T08:13:07.691Z,96812.22
2023-02-02T08:15:35.645Z,96813.78
2023-02-02T08:18:03.476Z,96813.78
2023-02-02T08:20:31.358Z,96809.47
2023-02-02T08:22:59.235Z,96813.78
2023-02-02T08:25:28.614Z,96810.56
2023-02-02T08:27:58.704Z,96810.03
2023-02-02T08:30:29.165Z,96813.53
2023-02-02T08:32:57.090Z,96819.13
2023-02-02T08:35:26.622Z,96833.03
2023-02-02T08:37:54.634Z,96826.06
2023-02-02T08:40:23.147Z,96823.09
2023-02-02T08:42:54.430Z,96819.31
2023-02-02T08:46:03.094Z,96828.97
2023-02-02T08:48:12.998Z,96826.59
2023-02-02T08:50:40.909Z,96830.63
2023-02-02T08:53:09.965Z,96817.50
2023-02-02T08:55:40.753Z,96830.66
2023-02-02T08:58:10.783Z,96824.75
2023-02-02T09:00:39.001Z,96830.41
2023-02-02T09:03:06.872Z,96830.41
2023-02-02T09:05:38.480Z,96834.69
2023-02-02T09:08:06.670Z,96830.72
2023-02-02T09:10:36.543Z,96836.06
2023-02-02T09:13:05.273Z,96825.88
2023-02-02T09:15:33.650Z,96830.72
2023-02-02T09:18:01.606Z,96832.59
2023-02-02T09:20:30.274Z,96833.13
2023-02-02T09:22:59.599Z,96838.50
2023-02-02T09:25:28.369Z,96835.31
2023-02-02T09:27:56.215Z,96831.84
2023-02-02T09:30:24.087Z,96831.06
2023-02-02T09:32:53.177Z,96837.50
2023-02-02T09:35:21.038Z,96838.03
2023-02-02T09:37:48.885Z,96842.88
2023-02-02T09:40:21.180Z,96839.09
2023-02-02T09:43:00.029Z,96845.56
2023-02-02T09:45:38.347Z,96839.94
2023-02-02T09:48:21.900Z,96849.06
2023-02-02T09:50:54.482Z,96855.50
2023-02-02T09:53:30.095Z,96855.22
2023-02-02T09:56:05.051Z,96860.06
2023-02-02T09:58:37.393Z,96863.56
2023-02-02T10:01:10.773Z,96860.88
2023-02-02T10:03:45.131Z,96858.47
2023-02-02T10:06:36.829Z,96865.44
2023-02-02T10:09:17.047Z,96863.06
2023-02-02T10:11:53.649Z,96857.41
2023-02-02T10:14:27.358Z,96865.47
2023-02-02T10:16:58.246Z,96865.72
2023-02-02T10:19:30.617Z,96866.81
2023-02-02T10:22:06.457Z,96874.31
2023-02-02T10:24:36.196Z,96870.31
2023-02-02T10:27:12.167Z,96867.09
2023-02-02T10:29:50.547Z,96861.19
2023-02-02T10:32:27.138Z,96866.56
2023-02-02T10:35:38.074Z,96866.56
2023-02-02T10:38:14.051Z,96874.38
2023-02-02T10:40:53.063Z,96869.53
2023-02-02T10:43:50.050Z,96874.09
2023-02-02T10:46:23.976Z,96868.22
2023-02-02T10:48:52.841Z,96874.09
2023-02-02T10:51:24.549Z,96863.38
2023-02-02T10:53:54.693Z,96862.84
2023-02-02T10:56:27.688Z,96855.34
2023-02-02T10:59:06.206Z,96857.50
2023-02-02T11:01:36.462Z,96862.06
2023-02-02T11:04:23.829Z,96853.19
2023-02-02T11:06:54.169Z,96859.91
2023-02-02T11:09:25.829Z,96860.19
2023-02-02T11:12:02.768Z,96861.50
2023-02-02T11:14:45.408Z,96864.19
2023-02-02T11:17:21.052Z,96869.03
2023-02-02T11:19:49.766Z,96870.34
2023-02-02T11:22:32.331Z,96865.56
2023-02-02T11:25:02.384Z,96869.31
2023-02-02T11:27:35.924Z,96893.72
2023-02-02T11:30:21.098Z,96881.91
2023-02-02T11:32:50.828Z,96879.25
2023-02-02T11:35:22.243Z,96871.19
2023-02-02T11:37:58.008Z,96871.19
2023-02-02T11:40:35.479Z,96873.09
2023-02-02T11:43:07.119Z,96880.34
2023-02-02T11:45:39.306Z,96866.34
2023-02-02T11:48:14.737Z,96874.13
2023-02-02T11:50:47.666Z,96881.13
2023-02-02T11:53:25.219Z,96881.66
2023-02-02T11:55:53.849Z,96883.25
2023-02-02T11:58:27.681Z,96879.25
2023-02-02T12:01:03.848Z,96868.25
2023-02-02T12:03:35.443Z,96887.03
2023-02-02T12:06:19.585Z,96870.41
2023-02-02T12:08:48.014Z,96874.97
2023-02-02T12:11:28.405Z,96862.06
2023-02-02T14:52:26.339Z,96959.50
2023-02-02T14:54:54.964Z,96953.88
2023-02-02T17:18:06.537Z,97135.84
2023-02-02T17:20:34.874Z,97136.09
2023-02-02T17:23:05.049Z,97131.81
2023-02-02T17:25:37.383Z,97139.84
2023-02-02T17:28:11.028Z,97162.09
2023-02-02T17:30:41.446Z,97159.47
2023-02-02T17:33:14.862Z,97169.63
2023-02-02T17:35:53.865Z,97164.25
2023-02-02T17:38:23.820Z,97166.91
2023-02-02T17:40:52.167Z,97167.97
2023-02-02T17:43:27.406Z,97169.56
2023-02-02T17:45:55.371Z,97166.09
2023-02-02T17:48:24.771Z,97175.19
2023-02-02T17:50:53.882Z,97178.09
2023-02-02T17:53:23.210Z,97184.81
2023-02-02T17:55:52.092Z,97195.53
2023-02-02T17:58:20.150Z,97204.13
2023-02-02T18:00:51.115Z,97200.38
2023-02-02T18:03:22.832Z,97198.22
2023-02-02T18:05:52.429Z,97211.91
2023-02-02T18:08:20.771Z,97198.47
2023-02-02T18:10:48.682Z,97211.38
2023-02-02T18:13:19.181Z,97196.91
2023-02-02T18:15:47.803Z,97215.94
2023-02-02T18:18:15.910Z,97216.22
2023-02-02T18:20:44.016Z,97215.66
2023-02-02T18:23:13.989Z,97222.00
2023-02-02T18:25:42.406Z,97228.22
2023-02-02T18:28:17.088Z,97226.56
2023-02-02T18:30:46.614Z,97229.25
2023-02-02T18:33:17.862Z,97225.75
2023-02-02T18:35:47.423Z,97234.56
2023-02-02T18:38:17.993Z,97238.56
2023-02-02T18:40:45.883Z,97238.25
2023-02-02T18:43:13.867Z,97234.25
2023-02-02T18:45:41.818Z,97238.03
2023-02-02T18:48:09.611Z,97242.06
2023-02-02T18:50:37.487Z,97229.97
2023-02-02T18:53:05.295Z,97237.69
2023-02-02T18:55:34.595Z,97232.31
2023-02-02T18:58:02.402Z,97229.09
2023-02-02T19:00:30.496Z,97232.84
2023-02-02T19:03:02.378Z,97225.63
2023-02-02T19:05:47.742Z,97226.38
2023-02-02T19:08:17.757Z,97230.16
2023-02-02T19:10:49.111Z,97246.78
2023-02-02T19:13:19.594Z,97235.53
2023-02-02T19:15:49.072Z,97252.09
2023-02-02T19:18:19.432Z,97263.38
2023-02-02T19:20:49.350Z,97247.31
2023-02-02T19:23:19.560Z,97245.66
2023-02-02T19:25:51.725Z,97244.63
2023-02-02T19:28:28.134Z,97249.41
2023-02-02T19:31:07.290Z,97256.91
2023-02-02T19:33:43.064Z,97258.84
2023-02-02T19:36:21.999Z,97269.78
2023-02-02T19:38:55.722Z,97272.47
2023-02-02T19:41:33.094Z,97284.81
2023-02-02T19:44:11.235Z,97267.09
2023-02-02T19:46:45.779Z,97272.22
2023-02-02T19:49:17.695Z,97259.88
2023-02-02T19:51:50.584Z,97275.41
2023-02-02T19:54:27.711Z,97265.50
2023-02-02T19:56:59.574Z,97267.91
2023-02-02T19:59:35.244Z,97274.66
2023-02-02T20:02:26.017Z,97281.63
2023-02-02T20:05:03.706Z,97285.63
2023-02-02T20:07:31.896Z,97280.50
2023-02-02T20:10:15.701Z,97284.59
2023-02-02T20:12:44.887Z,97278.44
2023-02-02T20:15:26.405Z,97277.63
2023-02-02T20:17:58.268Z,97284.06
2023-02-02T20:20:28.451Z,97284.88
2023-02-02T20:22:57.891Z,97285.41
2023-02-02T20:25:25.831Z,97289.16
2023-02-02T20:27:58.802Z,97289.22
2023-02-02T20:30:30.845Z,97288.41
2023-02-02T20:33:01.490Z,97299.13
2023-02-02T20:35:37.380Z,97286.53
2023-02-02T20:38:19.049Z,97298.06
2023-02-02T20:40:47.096Z,97290.28
2023-02-02T20:43:16.440Z,97288.47
2023-02-02T20:45:44.606Z,97283.59
2023-02-02T20:48:14.175Z,97284.13
2023-02-02T20:50:43.547Z,97288.41
2023-02-02T20:53:14.764Z,97296.19
2023-02-02T20:55:42.760Z,97294.09
2023-02-02T20:58:11.366Z,97300.25
2023-02-02T21:00:45.382Z,97299.44
2023-02-02T21:03:14.184Z,97294.84
2023-02-02T21:05:42.206Z,97299.19
2023-02-02T21:08:10.168Z,97300.78
2023-02-02T21:10:38.182Z,97299.25
2023-02-02T21:13:06.116Z,97298.16
2023-02-02T21:15:34.120Z,97308.41
2023-02-02T21:18:03.621Z,97314.06
2023-02-02T21:20:31.536Z,97312.50
2023-02-02T21:22:59.370Z,97312.25
2023-02-02T21:25:27.252Z,97317.03
2023-02-02T21:28:00.229Z,97320.56
2023-02-02T21:30:29.121Z,97317.88
2023-02-02T21:32:57.252Z,97316.81
2023-02-02T21:35:27.553Z,97324.59
2023-02-02T21:37:58.735Z,97326.50
2023-02-02T21:40:34.500Z,97324.59
2023-02-02T21:43:12.698Z,97315.25
2023-02-02T21:45:41.407Z,97316.53
2023-02-02T21:48:27.436Z,97319.53
2023-02-02T21:50:57.447Z,97319.53
2023-02-02T21:53:28.523Z,97318.97
2023-02-02T21:55:59.381Z,97313.38
2023-02-02T21:58:33.419Z,97319.28
2023-02-02T22:01:30.752Z,97317.41
2023-02-02T22:03:58.540Z,97323.28
2023-02-02T22:06:29.546Z,97323.56
2023-02-02T22:09:14.852Z,97320.88
2023-02-02T22:11:47.590Z,97319.59
2023-02-02T22:14:22.360Z,97333.00
2023-02-02T22:16:53.023Z,97339.97
2023-02-02T22:19:30.408Z,97334.06
2023-02-02T22:22:13.090Z,97343.47
2023-02-02T22:24:59.073Z,97337.06
2023-02-02T22:27:33.150Z,97342.16
2023-02-02T22:30:14.693Z,97336.31
2023-02-02T22:32:42.453Z,97343.00
2023-02-02T22:35:10.248Z,97343.00
2023-02-02T22:37:39.390Z,97349.19
2023-02-02T22:40:08.056Z,97351.88
2023-02-02T22:42:35.864Z,97343.28
2023-02-02T22:45:03.721Z,97348.69
2023-02-02T22:47:31.868Z,97351.38
2023-02-02T22:49:59.655Z,97353.53
2023-02-02T22:52:27.492Z,97358.59
2023-02-02T22:54:56.651Z,97354.06
2023-02-02T22:57:24.422Z,97356.72
2023-02-02T22:59:52.229Z,97348.13
2023-02-02T23:02:20.059Z,97349.72
2023-02-02T23:04:48.043Z,97346.44
2023-02-02T23:07:15.758Z,97339.47
2023-02-02T23:09:43.605Z,97343.47
2023-02-02T23:12:12.960Z,97341.03
2023-02-02T23:14:40.848Z,97339.16
2023-02-02T23:17:08.736Z,97338.34
2023-02-02T23:19:36.543Z,97340.50
2023-02-02T23:22:04.373Z,97333.47
2023-02-02T23:24:32.222Z,97330.56
2023-02-02T23:27:00.054Z,97345.84
2023-02-02T23:29:29.407Z,97344.47
2023-02-02T23:31:57.139Z,97340.97
2023-02-02T23:34:25.021Z,97330.00
2023-02-02T23:36:53.565Z,97336.38
2023-02-02T23:39:21.386Z,97331.28
2023-02-02T23:41:49.630Z,97327.53
2023-02-02T23:44:17.448Z,97327.75
2023-02-02T23:46:46.877Z,97314.06
2023-02-02T23:49:14.957Z,97326.91
2023-02-02T23:51:42.945Z,97326.91
2023-02-02T23:54:12.096Z,97338.13
2023-02-02T23:56:40.955Z,97336.25
2023-02-02T23:59:09.011Z,97336.00
